Flight Track Log - Related Links

Times and Time Zones

All times are in EDT time to prevent confusion due to time zone crossing. See the DAL1937 flight status page for this flight to view local times or setup timezone preferences in your user account.

Time Position Orientation Groundspeed Altitude Reporting Facility
EDT Latitude Longitude Course Direction KTS MPH feet Rate Location/Type
Mon 06:14:26 AM 39.1833 -76.7667 290° West 193 222 3,300  Level Potomac TRACON
Mon 06:15:26 AM 39.2000 -76.8500 284° West 235 270 7,000 3,500 Climbing Potomac TRACON
Mon 06:16:00 AM 39.2023 -77.1512 339° North  Level FlightAware Approximate
Mon 06:16:26 AM 39.2167 -76.9333 284° West 255 293 10,300  Level Potomac TRACON
Mon 06:17:00 AM 39.2831 -77.2163 322° Northwest  Level FlightAware Approximate
Mon 06:18:00 AM 39.3591 -77.2924 322° Northwest  Level FlightAware Approximate
Mon 06:18:25 AM 39.2747 -77.1197 292° West 302 348 14,600  Level Washington Center
Mon 06:19:00 AM 39.3946 -77.4061 290° West  Level FlightAware Approximate
Mon 06:19:24 AM 39.3150 -77.2281 296° West 328 377 17,600  Level Washington Center
Mon 06:20:24 AM 39.3550 -77.3417 295° West 339 390 19,600 2,083 Climbing Washington Center
Mon 06:21:25 AM 39.3992 -77.4636 295° West 356 410 21,800 2,200 Climbing Washington Center
Mon 06:22:24 AM 39.4408 -77.5856 294° West 366 421 24,000 1,966 Climbing Washington Center
Mon 06:23:24 AM 39.4825 -77.7078 294° West 371 427 25,700 1,488 Climbing Washington Center
Mon 06:24:25 AM 39.5283 -77.8356 295° West 382 440 27,000 1,224 Climbing Washington Center
Mon 06:26:45 AM 39.6219 -78.1386 292° West 395 455 29,800 2,100 Climbing Cleveland Center
Mon 06:27:45 AM 39.6622 -78.2719 291° West 395 455 34,000 1,600 Climbing Cleveland Center
Mon 06:28:45 AM 39.7022 -78.4003 292° West 390 449 33,000 -100 Descending Cleveland Center
Mon 06:29:45 AM 39.7381 -78.5286 290° West 385 443 33,800 500 Climbing Cleveland Center
Mon 06:30:45 AM 39.7797 -78.6544 293° West 380 437 34,000 100 Climbing Cleveland Center
Mon 06:31:45 AM 39.8297 -78.7772 298° West 385 443 34,000  Level Cleveland Center
Mon 06:32:45 AM 39.8858 -78.8947 302° West 385 443 34,000  Level Cleveland Center
Mon 06:33:45 AM 39.9525 -79.0314 303° West 395 455 34,000  Level Cleveland Center
Mon 06:34:45 AM 40.0125 -79.1544 303° West 400 460 34,000  Level Cleveland Center
Mon 06:35:45 AM 40.0594 -79.2675 299° West 400 460 34,000  Level Cleveland Center
Mon 06:36:45 AM 40.1278 -79.4047 303° West 400 460 34,000 -50 Level Cleveland Center
Mon 06:37:45 AM 40.1875 -79.5314 302° West 400 460 33,900 -500 Descending Cleveland Center
Mon 06:38:45 AM 40.2469 -79.6583 302° West 400 460 33,000 -900 Descending Cleveland Center
Mon 06:39:45 AM 40.3042 -79.7853 301° West 400 460 32,100 -950 Descending Cleveland Center
Mon 06:40:45 AM 40.3633 -79.9128 301° West 400 460 31,100 -950 Descending Cleveland Center
Mon 06:41:45 AM 40.4119 -80.0269 299° West 393 452 30,200 -550 Descending Cleveland Center
Mon 06:42:45 AM 40.4728 -80.1544 302° West 398 458 30,000 -100 Descending Cleveland Center
Mon 06:43:45 AM 40.5317 -80.2825 301° West 403 464 30,000  Level Cleveland Center
Mon 06:44:45 AM 40.5903 -80.4081 302° West 403 464 30,000  Level Cleveland Center
Mon 06:45:45 AM 40.6531 -80.5558 299° West 408 470 30,000  Level Cleveland Center
Mon 06:46:45 AM 40.7050 -80.6736 300° West 413 475 30,000  Level Cleveland Center
Mon 06:47:45 AM 40.7675 -80.8025 303° West 413 475 30,000  Level Cleveland Center
Mon 06:48:45 AM 40.8253 -80.9342 300° West 413 475 30,000  Level Cleveland Center
Mon 06:49:45 AM 40.8811 -81.0692 299° West 424 488 30,000 -150 Level Cleveland Center
Mon 06:50:45 AM 40.9431 -81.2017 302° West 424 488 29,700 -600 Descending Cleveland Center
Mon 06:51:45 AM 40.9986 -81.3342 299° West 418 481 28,800 -1,000 Descending Cleveland Center
Mon 06:52:45 AM 41.0622 -81.4781 300° West 418 481 27,700 -1,050 Descending Cleveland Center
Mon 06:53:45 AM 41.1175 -81.6083 299° West 418 481 26,700 -950 Descending Cleveland Center
Mon 06:54:45 AM 41.1706 -81.7222 302° West 418 481 25,800 -950 Descending Cleveland Center
Mon 06:55:45 AM 41.2275 -81.8531 300° West 418 481 24,800 -950 Descending Cleveland Center
Mon 06:56:45 AM 41.2803 -81.9783 299° West 407 468 23,900 -950 Descending Cleveland Center
Mon 06:57:45 AM 41.3369 -82.1042 301° West 397 457 22,900 -1,000 Descending Cleveland Center
Mon 06:58:45 AM 41.3958 -82.2272 303° West 397 457 21,900 -950 Descending Cleveland Center
Mon 06:59:45 AM 41.4608 -82.3369 308° West 391 450 21,000 -1,026 Descending Cleveland Center
Mon 07:00:42 AM 41.5361 -82.4556 310° West 382 440 19,900 -1,111 Descending Cleveland Center
Mon 07:01:06 AM 41.5583 -82.4978 305° West 379 436 19,500 -1,714 Descending Cleveland Center
Mon 07:01:45 AM 41.5906 -82.5544 307° West 381 438 18,100 -2,459 Descending Cleveland Center
Mon 07:02:07 AM 41.6211 -82.6025 310° West 368 423 17,000 -2,900 Descending Cleveland Center
Mon 07:02:45 AM 41.6575 -82.6675 307° West 373 429 15,200 -2,900 Descending Cleveland Center
Mon 07:03:07 AM 41.6839 -82.7075 311° West 351 404 14,100 -2,900 Descending Cleveland Center
Mon 07:03:45 AM 41.7181 -82.7697 306° West 359 413 12,300 -1,967 Descending Cleveland Center
Mon 07:04:08 AM 41.7425 -82.8039 314° West 338 389 12,100 -300 Descending Cleveland Center
Mon 07:04:45 AM 41.7853 -82.8528 320° Northwest 343 395 12,000 -98 Descending Cleveland Center
Mon 07:05:09 AM 41.8178 -82.8931 317° Northwest 330 380 12,000  Level Cleveland Center
Mon 07:05:45 AM 41.8525 -82.9333 319° Northwest 330 380 12,000  Level Cleveland Center
Mon 07:06:10 AM 41.8850 -82.9733 318° Northwest 332 382 12,000  Level Cleveland Center
Mon 07:06:45 AM 41.9236 -83.0194 318° Northwest 330 380 12,000  Level Cleveland Center
Mon 07:07:17 AM 41.9603 -83.0628 319° Northwest 332 382 12,000  Level Cleveland Center
Mon 07:07:45 AM 41.9886 -83.0975 318° Northwest 330 380 12,000  Level Cleveland Center
Mon 07:08:18 AM 42.0192 -83.1350 318° Northwest 274 315 12,000 -100 Level Cleveland Center
Mon 07:08:45 AM 42.0414 -83.1611 319° Northwest 301 346 11,900 -655 Descending Cleveland Center
Mon 07:09:13 AM 42.0617 -83.1869 317° Northwest 221 254 11,400 -900 Descending Cleveland Center
Mon 07:09:45 AM 42.0861 -83.2161 318° Northwest 251 289 11,000 -393 Descending Cleveland Center
Mon 07:10:14 AM 42.1106 -83.2450 319° Northwest 210 242 11,000 -867 Level Cleveland Center
Mon 07:11:15 AM 42.1669 -83.2333 North 226 260 9,700 -1,388 Descending Cleveland Center
Mon 07:12:15 AM 42.2139 -83.1878 36° Northeast 207 238 8,200 -803 Descending Cleveland Center
Mon 07:13:22 AM 42.2672 -83.1364 35° Northeast 204 235 8,000 -469 Descending Cleveland Center
Mon 07:14:23 AM 42.3178 -83.1078 23° Northeast 197 227 7,200 -590 Descending Cleveland Center
Mon 07:15:24 AM 42.3531 -83.1231 342° North 159 183 6,800 -1,131 Descending Cleveland Center
Mon 07:16:25 AM 42.3558 -83.1822 274° West 174 200 4,900 -1,672 Descending Cleveland Center
Mon 07:17:26 AM 42.3294 -83.2403 238° Southwest 170 196 3,400 -1,475 Descending Cleveland Center

Login

Don't have an account? Register now (free) for customized features, flight alerts, and more!